Terminal Aerodrome Forecast
Issued by NWS

Home | Current Version | Previous Version | Text Only | Print | Product List | Glossary On
Versions: 1 2 3 4 5 6 7 8 9 10 11 12 13
597
FTUS46 KSEW 261736
TAFBLI
TAF
KBLI 261736Z 2618/2718 17011KT P6SM BKN026 OVC035
     FM262000 17012G18KT P6SM SCT030 BKN040
     FM270000 17014G20KT P6SM VCSH BKN040
     FM270400 17012G18KT P6SM VCSH BKN025 OVC040
     FM271200 17007KT P6SM VCSH OVC025=

USA.gov is the U.S. government's official web portal to all federal, state and local government web resources and services.